createdAt,value
2018-06-15T00:00:41.680Z,10.40
2018-06-15T00:03:12.277Z,12.17
2018-06-15T00:05:43.779Z,11.80
2018-06-15T00:08:13.014Z,10.23
2018-06-15T00:13:42.239Z,8.70
2018-06-15T00:16:11.156Z,9.60
2018-06-15T00:18:40.338Z,11.30
2018-06-15T00:21:09.547Z,11.13
2018-06-15T00:23:38.722Z,12.57
2018-06-15T00:26:07.681Z,11.27
2018-06-15T00:28:36.889Z,11.57
2018-06-15T00:31:06.070Z,10.43
2018-06-15T00:33:35.300Z,11.63
2018-06-15T00:36:04.465Z,12.47
2018-06-15T00:38:56.894Z,12.13
2018-06-15T00:41:26.257Z,10.80
2018-06-15T00:43:55.604Z,11.50
2018-06-15T00:46:25.040Z,13.47
2018-06-15T00:48:54.185Z,10.50
2018-06-15T00:51:23.339Z,12.20
2018-06-15T00:53:54.494Z,12.37
2018-06-15T00:56:23.838Z,11.27
2018-06-15T00:58:53.329Z,14.00
2018-06-15T01:01:22.698Z,10.57
2018-06-15T01:03:53.226Z,11.10
2018-06-15T01:09:22.853Z,12.80
2018-06-15T01:11:52.005Z,12.90
2018-06-15T01:14:21.178Z,13.87
2018-06-15T01:16:50.512Z,12.60
2018-06-15T01:22:20.678Z,11.37
2018-06-15T01:24:49.837Z,11.80
2018-06-15T01:27:19.022Z,12.63
2018-06-15T01:29:48.218Z,14.33
2018-06-15T01:32:17.369Z,11.60
2018-06-15T01:34:59.153Z,11.80
2018-06-15T01:37:28.318Z,11.50
2018-06-15T01:39:57.497Z,10.50
2018-06-15T01:42:26.710Z,11.20
2018-06-15T01:44:55.865Z,10.70
2018-06-15T01:47:25.025Z,10.10
2018-06-15T01:49:54.234Z,11.97
2018-06-15T01:52:24.105Z,12.40
2018-06-15T01:54:54.630Z,11.23
2018-06-15T01:57:24.749Z,12.80
2018-06-15T01:59:53.919Z,11.03
2018-06-15T02:05:23.774Z,11.33
2018-06-15T02:07:52.972Z,12.67
2018-06-15T02:10:22.144Z,11.93
2018-06-15T02:12:51.352Z,11.37
2018-06-15T02:15:20.530Z,10.97
2018-06-15T02:17:49.684Z,10.60
2018-06-15T02:20:18.878Z,12.40
2018-06-15T02:22:48.034Z,10.33
2018-06-15T02:25:17.462Z,11.40
2018-06-15T02:27:47.057Z,10.30
2018-06-15T02:30:16.606Z,10.50
2018-06-15T02:32:45.930Z,9.30
2018-06-15T02:35:15.146Z,13.70
2018-06-15T02:37:44.306Z,12.37
2018-06-15T02:40:13.474Z,11.27
2018-06-15T02:45:43.290Z,13.00
2018-06-15T02:48:12.704Z,12.27
2018-06-15T02:50:41.898Z,11.07
2018-06-15T02:53:11.141Z,10.80
2018-06-15T02:55:41.421Z,10.90
2018-06-15T02:58:11.224Z,12.43
2018-06-15T03:00:40.425Z,10.67
2018-06-15T03:03:09.581Z,14.00
2018-06-15T03:05:38.769Z,10.67
2018-06-15T03:08:07.945Z,11.40
2018-06-15T03:16:37.203Z,14.27
2018-06-15T03:19:06.411Z,10.37
2018-06-15T03:21:35.645Z,10.70
2018-06-15T03:24:04.829Z,11.07
2018-06-15T03:26:33.985Z,10.70
2018-06-15T03:29:03.174Z,12.40
2018-06-15T03:31:32.388Z,13.33
2018-06-15T03:34:01.584Z,11.23
2018-06-15T03:36:30.813Z,12.07
2018-06-15T03:39:00.030Z,10.57
2018-06-15T03:41:29.376Z,10.87
2018-06-15T03:43:58.616Z,15.63
2018-06-15T03:46:27.945Z,12.37
2018-06-15T03:48:57.126Z,12.80
2018-06-15T03:51:26.303Z,12.33
2018-06-15T03:53:55.518Z,11.67
2018-06-15T03:56:24.686Z,12.80
2018-06-15T03:58:54.195Z,10.97
2018-06-15T04:01:23.461Z,12.40
2018-06-15T04:03:52.750Z,9.90
2018-06-15T04:06:21.946Z,12.40
2018-06-15T04:11:50.888Z,11.43
2018-06-15T04:14:20.052Z,10.67
2018-06-15T04:16:49.218Z,10.80
2018-06-15T04:19:18.410Z,12.23
2018-06-15T04:21:47.565Z,11.90
2018-06-15T04:24:16.729Z,14.23
2018-06-15T04:26:45.925Z,9.43
2018-06-15T04:29:15.069Z,10.87
2018-06-15T04:31:44.224Z,12.37
2018-06-15T04:37:13.958Z,11.70
2018-06-15T04:39:43.131Z,12.27
2018-06-15T04:42:12.316Z,10.10
2018-06-15T04:44:41.500Z,10.73
2018-06-15T04:47:10.670Z,10.27
2018-06-15T04:49:40.205Z,11.60
2018-06-15T04:52:09.455Z,10.17
2018-06-15T04:54:38.651Z,10.10
2018-06-15T04:57:07.830Z,13.10
2018-06-15T04:59:37.232Z,12.97
2018-06-15T05:02:06.401Z,19.13
2018-06-15T05:07:35.361Z,11.43
2018-06-15T05:10:04.766Z,14.17
2018-06-15T05:12:33.931Z,18.27
2018-06-15T05:18:35.487Z,17.33
2018-06-15T05:21:04.694Z,18.27
2018-06-15T05:23:33.845Z,14.40
2018-06-15T05:26:03.084Z,15.80
2018-06-15T05:28:32.349Z,18.87
2018-06-15T05:31:01.522Z,20.87
2018-06-15T05:33:30.701Z,21.83
2018-06-15T05:36:00.071Z,17.90
2018-06-15T05:38:29.278Z,16.93
2018-06-15T05:40:58.472Z,18.30
2018-06-15T05:43:27.669Z,19.43
2018-06-15T05:48:57.523Z,22.53
2018-06-15T05:51:26.698Z,13.63
2018-06-15T05:53:55.878Z,15.60
2018-06-15T05:56:25.054Z,13.60
2018-06-15T05:58:54.225Z,11.63
2018-06-15T06:01:23.458Z,13.10
2018-06-15T06:03:52.708Z,17.53
2018-06-15T06:06:22.146Z,14.50
2018-06-15T06:08:51.364Z,14.63
2018-06-15T06:14:21.238Z,18.67
2018-06-15T06:19:58.021Z,11.00
2018-06-15T06:22:27.158Z,11.50
2018-06-15T06:24:57.846Z,17.37
2018-06-15T06:36:56.443Z,14.63
2018-06-15T07:18:12.465Z,14.40
2018-06-15T07:29:58.614Z,15.20
2018-06-15T08:06:15.795Z,9.10
2018-06-15T08:35:56.825Z,8.70
2018-06-15T08:47:26.207Z,11.07
2018-06-15T08:55:58.670Z,8.40
2018-06-15T08:58:56.621Z,10.40
2018-06-15T09:07:25.790Z,11.03
2018-06-15T09:18:58.405Z,10.27
2018-06-15T09:27:55.693Z,9.00
2018-06-15T09:36:55.644Z,9.30
2018-06-15T09:59:57.589Z,10.03
2018-06-15T10:02:26.761Z,13.10
2018-06-15T10:04:55.966Z,9.40
2018-06-15T10:10:25.598Z,11.30
2018-06-15T10:12:58.442Z,11.53
2018-06-15T10:15:57.098Z,10.30
2018-06-15T10:36:58.748Z,9.90
2018-06-15T10:59:26.506Z,8.50
2018-06-15T11:10:59.821Z,9.03
2018-06-15T11:16:56.025Z,9.07
2018-06-15T11:40:56.315Z,9.13
2018-06-15T14:31:18.097Z,8.90
2018-06-15T14:33:47.301Z,8.33
2018-06-15T14:39:18.596Z,8.60
2018-06-15T14:41:47.771Z,8.10
2018-06-15T14:44:22.756Z,11.13
2018-06-15T14:46:51.965Z,8.30
2018-06-15T14:50:57.813Z,8.30
2018-06-15T14:53:56.339Z,12.07
2018-06-15T15:14:55.813Z,8.70
2018-06-15T15:26:19.308Z,10.47
2018-06-15T15:40:58.713Z,11.47
2018-06-15T15:43:54.638Z,8.27
2018-06-15T15:49:25.273Z,9.50
2018-06-15T15:51:55.632Z,9.57
2018-06-15T15:54:24.827Z,8.30
2018-06-15T15:56:59.521Z,8.00
2018-06-15T15:59:55.897Z,9.33
2018-06-15T16:08:25.677Z,9.87
2018-06-15T17:48:25.838Z,8.43
2018-06-15T17:50:58.526Z,8.83
2018-06-15T17:53:27.700Z,8.80
2018-06-15T17:55:56.861Z,10.40
2018-06-15T17:58:26.031Z,8.23
2018-06-15T18:00:55.241Z,8.47
2018-06-15T18:03:24.399Z,12.40
2018-06-15T18:05:53.596Z,10.27
2018-06-15T18:08:22.794Z,10.03
2018-06-15T18:10:52.849Z,8.00
2018-06-15T18:13:22.080Z,10.50
2018-06-15T18:15:51.258Z,13.20
2018-06-15T18:18:20.437Z,12.30
2018-06-15T18:21:08.699Z,19.70
2018-06-15T18:23:37.900Z,16.63
2018-06-15T18:26:07.078Z,12.13
2018-06-15T18:33:55.769Z,12.90
2018-06-15T18:36:25.300Z,9.30
2018-06-15T18:47:59.003Z,10.00
2018-06-15T18:50:57.311Z,9.83
2018-06-15T18:56:20.771Z,9.33
2018-06-15T18:58:58.016Z,8.40
2018-06-15T19:04:55.787Z,11.87
2018-06-15T19:13:25.876Z,10.20
2018-06-15T19:15:55.028Z,12.93
2018-06-15T19:18:24.206Z,11.03
2018-06-15T19:20:59.178Z,9.10
2018-06-15T19:23:57.054Z,9.60
2018-06-15T19:26:26.258Z,9.80
2018-06-15T19:32:00.059Z,8.80
2018-06-15T19:34:56.425Z,8.90
2018-06-15T19:40:25.606Z,9.10
2018-06-15T19:42:58.606Z,10.90
2018-06-15T19:45:57.255Z,9.40
2018-06-15T19:48:26.197Z,8.47
2018-06-15T19:50:59.208Z,9.87
2018-06-15T19:53:55.913Z,9.70
2018-06-15T19:59:24.890Z,12.67
2018-06-15T20:01:54.105Z,8.03
2018-06-15T20:04:23.350Z,8.97
2018-06-15T20:06:52.605Z,8.93
2018-06-15T20:09:21.824Z,9.53
2018-06-15T20:11:57.862Z,10.17
2018-06-15T20:14:27.009Z,9.63
2018-06-15T20:16:56.168Z,10.03
2018-06-15T20:19:25.444Z,11.50
2018-06-15T20:21:54.593Z,8.97
2018-06-15T20:27:24.485Z,9.00
2018-06-15T20:29:53.730Z,9.93
2018-06-15T20:32:22.903Z,8.80
2018-06-15T20:34:52.111Z,9.90
2018-06-15T20:37:21.327Z,8.50
2018-06-15T20:39:57.613Z,9.20
2018-06-15T20:42:26.808Z,9.30
2018-06-15T20:44:56.057Z,8.60
2018-06-15T20:47:25.251Z,10.60
2018-06-15T20:49:54.469Z,9.50
2018-06-15T20:55:24.162Z,12.50
2018-06-15T20:57:53.353Z,9.27
2018-06-15T21:00:22.859Z,10.30
2018-06-15T21:02:52.022Z,10.00
2018-06-15T21:05:21.219Z,9.73
2018-06-15T21:07:50.482Z,9.80
2018-06-15T21:10:19.662Z,9.43
2018-06-15T21:12:48.857Z,10.00
2018-06-15T21:15:18.205Z,9.00
2018-06-15T21:17:47.466Z,9.83
2018-06-15T21:20:16.721Z,9.43
2018-06-15T21:25:45.987Z,10.30
2018-06-15T21:28:15.229Z,9.43
2018-06-15T21:30:44.413Z,8.30
2018-06-15T21:33:13.613Z,10.17
2018-06-15T21:38:43.457Z,10.23
2018-06-15T21:41:12.432Z,9.90
2018-06-15T21:43:41.612Z,8.87
2018-06-15T21:46:10.800Z,9.50
2018-06-15T21:51:39.918Z,9.90
2018-06-15T21:54:09.064Z,9.50
2018-06-15T21:56:38.236Z,9.53
2018-06-15T21:59:07.422Z,10.57
2018-06-15T22:01:37.256Z,10.00
2018-06-15T22:04:06.437Z,9.90
2018-06-15T22:06:35.627Z,11.00
2018-06-15T22:09:07.305Z,10.20
2018-06-15T22:11:36.518Z,9.70
2018-06-15T22:14:05.714Z,9.60
2018-06-15T22:19:14.981Z,11.23
2018-06-15T22:21:44.145Z,9.10
2018-06-15T22:24:13.352Z,10.40
2018-06-15T22:26:42.580Z,9.77
2018-06-15T22:29:11.799Z,11.80
2018-06-15T22:31:57.864Z,10.23
2018-06-15T22:34:27.116Z,11.37
2018-06-15T22:39:56.633Z,10.37
2018-06-15T22:42:25.812Z,11.97
2018-06-15T22:44:54.981Z,11.10
2018-06-15T22:47:24.186Z,10.83
2018-06-15T22:49:53.351Z,10.80
2018-06-15T22:52:22.516Z,12.83
2018-06-15T22:54:51.800Z,10.03
2018-06-15T22:57:20.974Z,11.00
2018-06-15T22:59:50.196Z,11.40
2018-06-15T23:02:19.368Z,10.97
2018-06-15T23:04:48.621Z,10.90
2018-06-15T23:07:17.805Z,11.50
2018-06-15T23:09:46.966Z,10.70
2018-06-15T23:12:16.150Z,12.43
2018-06-15T23:17:57.798Z,13.97
2018-06-15T23:20:26.989Z,12.50
2018-06-15T23:22:56.174Z,11.50
2018-06-15T23:25:25.377Z,11.57
2018-06-15T23:27:54.525Z,12.53
2018-06-15T23:30:23.722Z,11.77
2018-06-15T23:32:53.014Z,12.60
2018-06-15T23:35:22.289Z,10.60
2018-06-15T23:37:51.478Z,12.10
2018-06-15T23:40:20.662Z,16.97
2018-06-15T23:42:58.110Z,19.57
2018-06-15T23:45:27.263Z,19.87
2018-06-15T23:47:56.448Z,17.17
2018-06-15T23:50:25.642Z,11.83
2018-06-15T23:52:54.801Z,11.60
2018-06-15T23:58:24.629Z,13.17
